sensor_id;sensor_type;location;lat;lon;timestamp;P1;durP1;ratioP1;P2;durP2;ratioP2
32032;SDS011;31720;52.638;9.216;2023-05-15T00:00:06;6.00;;;3.90;;
32032;SDS011;31720;52.638;9.216;2023-05-15T00:03:09;5.55;;;3.83;;
32032;SDS011;31720;52.638;9.216;2023-05-15T00:06:11;5.45;;;4.18;;
32032;SDS011;31720;52.638;9.216;2023-05-15T00:09:13;9.20;;;3.83;;
32032;SDS011;31720;52.638;9.216;2023-05-15T00:12:15;6.18;;;4.05;;
32032;SDS011;31720;52.638;9.216;2023-05-15T00:15:16;6.53;;;3.70;;
32032;SDS011;31720;52.638;9.216;2023-05-15T00:18:18;10.40;;;4.00;;
32032;SDS011;31720;52.638;9.216;2023-05-15T00:21:19;7.70;;;4.75;;
32032;SDS011;31720;52.638;9.216;2023-05-15T00:24:22;7.85;;;4.45;;
32032;SDS011;31720;52.638;9.216;2023-05-15T00:27:23;8.32;;;4.38;;
32032;SDS011;31720;52.638;9.216;2023-05-15T00:30:25;9.65;;;4.63;;
32032;SDS011;31720;52.638;9.216;2023-05-15T00:33:28;6.45;;;4.40;;
32032;SDS011;31720;52.638;9.216;2023-05-15T00:36:30;7.28;;;5.15;;
32032;SDS011;31720;52.638;9.216;2023-05-15T00:39:32;7.20;;;4.40;;
32032;SDS011;31720;52.638;9.216;2023-05-15T00:42:34;5.90;;;4.28;;
32032;SDS011;31720;52.638;9.216;2023-05-15T00:45:35;7.10;;;3.90;;
32032;SDS011;31720;52.638;9.216;2023-05-15T00:48:40;9.98;;;5.00;;
32032;SDS011;31720;52.638;9.216;2023-05-15T00:51:42;8.00;;;4.60;;
32032;SDS011;31720;52.638;9.216;2023-05-15T00:54:45;7.30;;;4.20;;
32032;SDS011;31720;52.638;9.216;2023-05-15T00:57:47;5.63;;;3.97;;
32032;SDS011;31720;52.638;9.216;2023-05-15T01:00:49;6.70;;;4.53;;
32032;SDS011;31720;52.638;9.216;2023-05-15T01:03:51;7.93;;;4.80;;
32032;SDS011;31720;52.638;9.216;2023-05-15T01:06:52;6.78;;;4.20;;
32032;SDS011;31720;52.638;9.216;2023-05-15T01:09:55;10.15;;;4.57;;
32032;SDS011;31720;52.638;9.216;2023-05-15T01:12:57;7.53;;;4.28;;
32032;SDS011;31720;52.638;9.216;2023-05-15T01:16:00;6.15;;;4.40;;
32032;SDS011;31720;52.638;9.216;2023-05-15T01:19:01;6.25;;;4.32;;
32032;SDS011;31720;52.638;9.216;2023-05-15T01:22:24;7.15;;;4.68;;
32032;SDS011;31720;52.638;9.216;2023-05-15T01:25:59;7.50;;;4.50;;
32032;SDS011;31720;52.638;9.216;2023-05-15T01:29:23;7.80;;;4.43;;
32032;SDS011;31720;52.638;9.216;2023-05-15T01:32:31;5.57;;;4.05;;
32032;SDS011;31720;52.638;9.216;2023-05-15T01:35:51;7.85;;;4.55;;
32032;SDS011;31720;52.638;9.216;2023-05-15T01:38:59;8.07;;;4.93;;
32032;SDS011;31720;52.638;9.216;2023-05-15T01:42:04;6.78;;;4.55;;
32032;SDS011;31720;52.638;9.216;2023-05-15T01:45:10;9.52;;;4.68;;
32032;SDS011;31720;52.638;9.216;2023-05-15T01:48:13;6.95;;;4.13;;
32032;SDS011;31720;52.638;9.216;2023-05-15T01:51:15;7.18;;;4.78;;
32032;SDS011;31720;52.638;9.216;2023-05-15T01:54:19;7.00;;;4.80;;
32032;SDS011;31720;52.638;9.216;2023-05-15T01:57:22;6.50;;;4.13;;
32032;SDS011;31720;52.638;9.216;2023-05-15T02:00:27;8.25;;;5.38;;
32032;SDS011;31720;52.638;9.216;2023-05-15T02:03:29;9.68;;;5.00;;
32032;SDS011;31720;52.638;9.216;2023-05-15T02:06:33;6.82;;;4.55;;
32032;SDS011;31720;52.638;9.216;2023-05-15T02:09:35;7.20;;;4.95;;
32032;SDS011;31720;52.638;9.216;2023-05-15T02:12:37;7.65;;;4.78;;
32032;SDS011;31720;52.638;9.216;2023-05-15T02:15:41;7.55;;;4.78;;
32032;SDS011;31720;52.638;9.216;2023-05-15T02:18:43;10.00;;;5.57;;
32032;SDS011;31720;52.638;9.216;2023-05-15T02:21:44;10.45;;;5.28;;
32032;SDS011;31720;52.638;9.216;2023-05-15T02:24:46;11.38;;;4.32;;
32032;SDS011;31720;52.638;9.216;2023-05-15T02:27:48;8.35;;;5.40;;
32032;SDS011;31720;52.638;9.216;2023-05-15T02:30:57;7.35;;;4.70;;
32032;SDS011;31720;52.638;9.216;2023-05-15T02:34:06;7.38;;;4.82;;
32032;SDS011;31720;52.638;9.216;2023-05-15T02:37:16;6.43;;;4.22;;
32032;SDS011;31720;52.638;9.216;2023-05-15T02:40:24;6.00;;;4.40;;
32032;SDS011;31720;52.638;9.216;2023-05-15T02:43:27;6.88;;;4.50;;
32032;SDS011;31720;52.638;9.216;2023-05-15T02:46:31;6.40;;;4.80;;
32032;SDS011;31720;52.638;9.216;2023-05-15T02:49:32;5.20;;;4.07;;
32032;SDS011;31720;52.638;9.216;2023-05-15T02:52:34;6.43;;;4.57;;
32032;SDS011;31720;52.638;9.216;2023-05-15T02:55:37;6.55;;;4.88;;
32032;SDS011;31720;52.638;9.216;2023-05-15T02:58:38;7.28;;;4.88;;
32032;SDS011;31720;52.638;9.216;2023-05-15T03:01:42;9.18;;;5.13;;
32032;SDS011;31720;52.638;9.216;2023-05-15T03:04:44;7.20;;;4.82;;
32032;SDS011;31720;52.638;9.216;2023-05-15T03:07:45;8.25;;;5.47;;
32032;SDS011;31720;52.638;9.216;2023-05-15T03:10:47;8.15;;;5.07;;
32032;SDS011;31720;52.638;9.216;2023-05-15T03:13:48;8.18;;;5.28;;
32032;SDS011;31720;52.638;9.216;2023-05-15T03:16:51;9.18;;;5.03;;
32032;SDS011;31720;52.638;9.216;2023-05-15T03:19:52;7.70;;;5.32;;
32032;SDS011;31720;52.638;9.216;2023-05-15T03:22:53;7.85;;;5.07;;
32032;SDS011;31720;52.638;9.216;2023-05-15T03:25:55;8.85;;;5.07;;
32032;SDS011;31720;52.638;9.216;2023-05-15T03:28:56;9.82;;;5.47;;
32032;SDS011;31720;52.638;9.216;2023-05-15T03:31:59;9.70;;;5.63;;
32032;SDS011;31720;52.638;9.216;2023-05-15T03:35:00;6.43;;;4.60;;
32032;SDS011;31720;52.638;9.216;2023-05-15T03:38:02;6.60;;;5.00;;
32032;SDS011;31720;52.638;9.216;2023-05-15T03:41:03;9.20;;;5.28;;
32032;SDS011;31720;52.638;9.216;2023-05-15T03:44:04;7.85;;;5.47;;
32032;SDS011;31720;52.638;9.216;2023-05-15T03:47:07;8.55;;;4.90;;
32032;SDS011;31720;52.638;9.216;2023-05-15T03:50:09;5.70;;;4.25;;
32032;SDS011;31720;52.638;9.216;2023-05-15T03:53:11;11.93;;;5.32;;
32032;SDS011;31720;52.638;9.216;2023-05-15T03:56:12;7.70;;;4.97;;
32032;SDS011;31720;52.638;9.216;2023-05-15T03:59:14;6.88;;;4.72;;
32032;SDS011;31720;52.638;9.216;2023-05-15T04:02:16;7.70;;;4.38;;
32032;SDS011;31720;52.638;9.216;2023-05-15T04:05:18;10.63;;;6.18;;
32032;SDS011;31720;52.638;9.216;2023-05-15T04:08:20;7.85;;;5.47;;
32032;SDS011;31720;52.638;9.216;2023-05-15T04:11:21;8.77;;;4.63;;
32032;SDS011;31720;52.638;9.216;2023-05-15T04:14:23;7.10;;;5.03;;
32032;SDS011;31720;52.638;9.216;2023-05-15T04:17:26;8.68;;;4.90;;
32032;SDS011;31720;52.638;9.216;2023-05-15T04:20:27;6.60;;;4.22;;
32032;SDS011;31720;52.638;9.216;2023-05-15T04:23:28;10.57;;;5.38;;
32032;SDS011;31720;52.638;9.216;2023-05-15T04:26:30;12.82;;;4.80;;
32032;SDS011;31720;52.638;9.216;2023-05-15T04:29:31;8.38;;;5.45;;
32032;SDS011;31720;52.638;9.216;2023-05-15T04:32:34;9.93;;;5.60;;
32032;SDS011;31720;52.638;9.216;2023-05-15T04:35:36;10.48;;;6.28;;
32032;SDS011;31720;52.638;9.216;2023-05-15T04:38:37;9.00;;;5.30;;
32032;SDS011;31720;52.638;9.216;2023-05-15T04:41:39;7.25;;;5.05;;
32032;SDS011;31720;52.638;9.216;2023-05-15T04:44:40;8.65;;;4.93;;
32032;SDS011;31720;52.638;9.216;2023-05-15T04:47:43;7.68;;;5.15;;
32032;SDS011;31720;52.638;9.216;2023-05-15T04:50:44;8.15;;;4.68;;
32032;SDS011;31720;52.638;9.216;2023-05-15T04:53:45;11.43;;;5.70;;
32032;SDS011;31720;52.638;9.216;2023-05-15T04:56:47;9.15;;;5.70;;
32032;SDS011;31720;52.638;9.216;2023-05-15T04:59:48;8.65;;;5.57;;
32032;SDS011;31720;52.638;9.216;2023-05-15T05:02:51;10.70;;;5.90;;
32032;SDS011;31720;52.638;9.216;2023-05-15T05:05:52;8.40;;;5.03;;
32032;SDS011;31720;52.638;9.216;2023-05-15T05:08:54;11.13;;;6.15;;
32032;SDS011;31720;52.638;9.216;2023-05-15T05:11:55;7.82;;;4.68;;
32032;SDS011;31720;52.638;9.216;2023-05-15T05:14:58;9.07;;;5.72;;
32032;SDS011;31720;52.638;9.216;2023-05-15T05:18:01;8.98;;;5.93;;
32032;SDS011;31720;52.638;9.216;2023-05-15T05:21:02;7.85;;;5.57;;
32032;SDS011;31720;52.638;9.216;2023-05-15T05:24:04;6.80;;;4.75;;
32032;SDS011;31720;52.638;9.216;2023-05-15T05:27:05;8.93;;;5.80;;
32032;SDS011;31720;52.638;9.216;2023-05-15T05:30:07;8.35;;;5.25;;
32032;SDS011;31720;52.638;9.216;2023-05-15T05:33:10;6.95;;;4.57;;
32032;SDS011;31720;52.638;9.216;2023-05-15T05:36:12;10.85;;;5.07;;
32032;SDS011;31720;52.638;9.216;2023-05-15T05:39:13;10.25;;;5.78;;
32032;SDS011;31720;52.638;9.216;2023-05-15T05:42:15;13.77;;;5.88;;
32032;SDS011;31720;52.638;9.216;2023-05-15T05:45:16;9.77;;;5.68;;
32032;SDS011;31720;52.638;9.216;2023-05-15T05:48:19;11.52;;;6.10;;
32032;SDS011;31720;52.638;9.216;2023-05-15T05:51:20;14.38;;;5.50;;
32032;SDS011;31720;52.638;9.216;2023-05-15T05:54:22;10.55;;;6.07;;
32032;SDS011;31720;52.638;9.216;2023-05-15T05:57:23;8.90;;;6.07;;
32032;SDS011;31720;52.638;9.216;2023-05-15T06:00:25;7.32;;;5.30;;
32032;SDS011;31720;52.638;9.216;2023-05-15T06:03:27;13.60;;;7.78;;
32032;SDS011;31720;52.638;9.216;2023-05-15T06:06:29;11.93;;;7.30;;
32032;SDS011;31720;52.638;9.216;2023-05-15T06:09:31;19.10;;;6.65;;
32032;SDS011;31720;52.638;9.216;2023-05-15T06:12:32;8.27;;;4.82;;
32032;SDS011;31720;52.638;9.216;2023-05-15T06:15:34;10.95;;;6.75;;
32032;SDS011;31720;52.638;9.216;2023-05-15T06:18:36;14.60;;;6.63;;
32032;SDS011;31720;52.638;9.216;2023-05-15T06:21:41;7.85;;;5.07;;
32032;SDS011;31720;52.638;9.216;2023-05-15T06:24:43;17.38;;;6.68;;
32032;SDS011;31720;52.638;9.216;2023-05-15T06:27:44;8.48;;;5.95;;
32032;SDS011;31720;52.638;9.216;2023-05-15T06:30:46;13.23;;;7.90;;
32032;SDS011;31720;52.638;9.216;2023-05-15T06:33:49;15.05;;;7.45;;
32032;SDS011;31720;52.638;9.216;2023-05-15T06:36:50;12.68;;;7.85;;
32032;SDS011;31720;52.638;9.216;2023-05-15T06:39:52;16.75;;;7.47;;
32032;SDS011;31720;52.638;9.216;2023-05-15T06:42:53;14.77;;;8.70;;
32032;SDS011;31720;52.638;9.216;2023-05-15T06:45:54;15.13;;;9.30;;
32032;SDS011;31720;52.638;9.216;2023-05-15T06:48:57;19.30;;;10.73;;
32032;SDS011;31720;52.638;9.216;2023-05-15T06:51:58;23.55;;;9.88;;
32032;SDS011;31720;52.638;9.216;2023-05-15T06:55:00;17.92;;;8.45;;
32032;SDS011;31720;52.638;9.216;2023-05-15T06:58:01;11.10;;;7.28;;
32032;SDS011;31720;52.638;9.216;2023-05-15T07:01:03;13.57;;;8.18;;
32032;SDS011;31720;52.638;9.216;2023-05-15T07:04:06;11.52;;;7.13;;
32032;SDS011;31720;52.638;9.216;2023-05-15T07:07:08;13.45;;;7.32;;
32032;SDS011;31720;52.638;9.216;2023-05-15T07:10:09;17.20;;;8.80;;
32032;SDS011;31720;52.638;9.216;2023-05-15T07:13:11;14.55;;;9.00;;
32032;SDS011;31720;52.638;9.216;2023-05-15T07:16:12;15.15;;;8.60;;
32032;SDS011;31720;52.638;9.216;2023-05-15T07:19:17;16.83;;;9.02;;
32032;SDS011;31720;52.638;9.216;2023-05-15T07:22:19;16.95;;;9.50;;
32032;SDS011;31720;52.638;9.216;2023-05-15T07:25:21;13.73;;;8.50;;
32032;SDS011;31720;52.638;9.216;2023-05-15T07:28:22;13.73;;;8.57;;
32032;SDS011;31720;52.638;9.216;2023-05-15T07:31:23;15.82;;;8.10;;
32032;SDS011;31720;52.638;9.216;2023-05-15T07:34:26;14.32;;;8.10;;
32032;SDS011;31720;52.638;9.216;2023-05-15T07:37:27;18.33;;;8.82;;
32032;SDS011;31720;52.638;9.216;2023-05-15T07:40:29;12.88;;;7.00;;
32032;SDS011;31720;52.638;9.216;2023-05-15T07:43:31;11.60;;;6.90;;
32032;SDS011;31720;52.638;9.216;2023-05-15T07:46:33;13.05;;;7.63;;
32032;SDS011;31720;52.638;9.216;2023-05-15T07:49:35;12.68;;;7.30;;
32032;SDS011;31720;52.638;9.216;2023-05-15T07:52:37;13.60;;;6.68;;
32032;SDS011;31720;52.638;9.216;2023-05-15T07:55:39;41.35;;;10.38;;
32032;SDS011;31720;52.638;9.216;2023-05-15T07:58:40;12.77;;;6.50;;
32032;SDS011;31720;52.638;9.216;2023-05-15T08:01:42;16.45;;;6.40;;
32032;SDS011;31720;52.638;9.216;2023-05-15T08:04:44;10.35;;;5.82;;
32032;SDS011;31720;52.638;9.216;2023-05-15T08:07:46;12.48;;;6.15;;
32032;SDS011;31720;52.638;9.216;2023-05-15T08:10:47;9.05;;;5.63;;
32032;SDS011;31720;52.638;9.216;2023-05-15T08:13:49;11.75;;;6.60;;
32032;SDS011;31720;52.638;9.216;2023-05-15T08:16:50;13.82;;;6.25;;
32032;SDS011;31720;52.638;9.216;2023-05-15T08:19:53;10.30;;;6.15;;
32032;SDS011;31720;52.638;9.216;2023-05-15T08:22:55;10.95;;;6.88;;
32032;SDS011;31720;52.638;9.216;2023-05-15T08:25:57;13.02;;;6.28;;
32032;SDS011;31720;52.638;9.216;2023-05-15T08:28:58;15.27;;;5.80;;
32032;SDS011;31720;52.638;9.216;2023-05-15T08:32:00;10.65;;;5.90;;
32032;SDS011;31720;52.638;9.216;2023-05-15T08:35:04;9.82;;;5.70;;
32032;SDS011;31720;52.638;9.216;2023-05-15T08:38:06;10.43;;;5.70;;
32032;SDS011;31720;52.638;9.216;2023-05-15T08:44:30;10.27;;;5.22;;
32032;SDS011;31720;52.638;9.216;2023-05-15T08:47:32;10.27;;;5.50;;
32032;SDS011;31720;52.638;9.216;2023-05-15T08:50:39;13.48;;;6.53;;
32032;SDS011;31720;52.638;9.216;2023-05-15T08:53:42;8.55;;;5.47;;
32032;SDS011;31720;52.638;9.216;2023-05-15T08:56:44;14.95;;;5.40;;
32032;SDS011;31720;52.638;9.216;2023-05-15T08:59:46;7.53;;;4.45;;
32032;SDS011;31720;52.638;9.216;2023-05-15T09:02:52;11.40;;;4.47;;
32032;SDS011;31720;52.638;9.216;2023-05-15T09:05:55;8.13;;;4.57;;
32032;SDS011;31720;52.638;9.216;2023-05-15T09:08:58;17.55;;;5.00;;
32032;SDS011;31720;52.638;9.216;2023-05-15T09:12:01;10.02;;;6.10;;
32032;SDS011;31720;52.638;9.216;2023-05-15T09:15:07;8.32;;;5.03;;
32032;SDS011;31720;52.638;9.216;2023-05-15T09:18:09;11.57;;;5.55;;
32032;SDS011;31720;52.638;9.216;2023-05-15T09:21:22;10.38;;;4.43;;
32032;SDS011;31720;52.638;9.216;2023-05-15T09:24:24;12.20;;;6.03;;
32032;SDS011;31720;52.638;9.216;2023-05-15T09:27:28;8.75;;;5.38;;
32032;SDS011;31720;52.638;9.216;2023-05-15T09:30:29;10.00;;;5.40;;
32032;SDS011;31720;52.638;9.216;2023-05-15T09:33:31;9.50;;;6.10;;
32032;SDS011;31720;52.638;9.216;2023-05-15T09:36:35;13.10;;;6.97;;
32032;SDS011;31720;52.638;9.216;2023-05-15T09:39:42;11.57;;;7.18;;
32032;SDS011;31720;52.638;9.216;2023-05-15T09:42:50;11.43;;;7.25;;
32032;SDS011;31720;52.638;9.216;2023-05-15T09:45:51;13.77;;;6.95;;
32032;SDS011;31720;52.638;9.216;2023-05-15T09:48:53;9.95;;;6.07;;
32032;SDS011;31720;52.638;9.216;2023-05-15T09:51:58;11.90;;;7.18;;
32032;SDS011;31720;52.638;9.216;2023-05-15T09:55:00;15.55;;;7.57;;
32032;SDS011;31720;52.638;9.216;2023-05-15T09:58:05;14.18;;;6.60;;
32032;SDS011;31720;52.638;9.216;2023-05-15T10:01:08;11.63;;;5.93;;
32032;SDS011;31720;52.638;9.216;2023-05-15T10:04:11;11.30;;;6.05;;
32032;SDS011;31720;52.638;9.216;2023-05-15T10:07:14;12.07;;;6.30;;
32032;SDS011;31720;52.638;9.216;2023-05-15T10:10:28;14.23;;;6.15;;
32032;SDS011;31720;52.638;9.216;2023-05-15T10:13:30;12.73;;;6.55;;
32032;SDS011;31720;52.638;9.216;2023-05-15T10:16:32;11.15;;;6.28;;
32032;SDS011;31720;52.638;9.216;2023-05-15T10:19:35;13.25;;;7.03;;
32032;SDS011;31720;52.638;9.216;2023-05-15T10:22:39;8.98;;;5.55;;
32032;SDS011;31720;52.638;9.216;2023-05-15T10:25:47;17.02;;;6.65;;
32032;SDS011;31720;52.638;9.216;2023-05-15T10:28:55;15.13;;;7.05;;
32032;SDS011;31720;52.638;9.216;2023-05-15T10:31:57;17.73;;;8.57;;
32032;SDS011;31720;52.638;9.216;2023-05-15T10:35:00;13.73;;;7.93;;
32032;SDS011;31720;52.638;9.216;2023-05-15T10:38:04;10.15;;;4.85;;
32032;SDS011;31720;52.638;9.216;2023-05-15T10:41:06;11.77;;;6.05;;
32032;SDS011;31720;52.638;9.216;2023-05-15T10:44:09;9.68;;;4.82;;
32032;SDS011;31720;52.638;9.216;2023-05-15T10:47:11;8.25;;;4.63;;
32032;SDS011;31720;52.638;9.216;2023-05-15T10:50:12;8.27;;;4.50;;
32032;SDS011;31720;52.638;9.216;2023-05-15T10:53:16;7.00;;;4.47;;
32032;SDS011;31720;52.638;9.216;2023-05-15T10:56:19;6.88;;;4.63;;
32032;SDS011;31720;52.638;9.216;2023-05-15T10:59:21;8.05;;;4.50;;
32032;SDS011;31720;52.638;9.216;2023-05-15T11:02:31;11.45;;;5.90;;
32032;SDS011;31720;52.638;9.216;2023-05-15T11:12:53;5.30;;;3.45;;
32032;SDS011;31720;52.638;9.216;2023-05-15T11:15:56;7.72;;;4.00;;
32032;SDS011;31720;52.638;9.216;2023-05-15T11:18:57;6.55;;;3.90;;
32032;SDS011;31720;52.638;9.216;2023-05-15T11:21:59;6.45;;;4.03;;
32032;SDS011;31720;52.638;9.216;2023-05-15T11:25:03;4.70;;;3.28;;
32032;SDS011;31720;52.638;9.216;2023-05-15T11:28:05;6.47;;;3.53;;
32032;SDS011;31720;52.638;9.216;2023-05-15T11:31:21;10.13;;;3.72;;
32032;SDS011;31720;52.638;9.216;2023-05-15T11:34:29;8.23;;;3.65;;
32032;SDS011;31720;52.638;9.216;2023-05-15T11:37:31;6.38;;;3.35;;
32032;SDS011;31720;52.638;9.216;2023-05-15T11:40:42;9.57;;;3.60;;
32032;SDS011;31720;52.638;9.216;2023-05-15T11:43:46;4.47;;;2.95;;
32032;SDS011;31720;52.638;9.216;2023-05-15T11:46:48;6.47;;;3.45;;
32032;SDS011;31720;52.638;9.216;2023-05-15T11:49:50;6.20;;;3.90;;
32032;SDS011;31720;52.638;9.216;2023-05-15T11:52:52;5.75;;;3.55;;
32032;SDS011;31720;52.638;9.216;2023-05-15T11:55:56;7.43;;;4.45;;
32032;SDS011;31720;52.638;9.216;2023-05-15T11:58:58;9.98;;;4.40;;
32032;SDS011;31720;52.638;9.216;2023-05-15T12:02:01;7.47;;;4.55;;
32032;SDS011;31720;52.638;9.216;2023-05-15T12:05:05;6.82;;;3.95;;
32032;SDS011;31720;52.638;9.216;2023-05-15T12:08:08;8.00;;;4.30;;
32032;SDS011;31720;52.638;9.216;2023-05-15T12:11:11;5.90;;;3.90;;
32032;SDS011;31720;52.638;9.216;2023-05-15T12:14:13;5.25;;;3.83;;
32032;SDS011;31720;52.638;9.216;2023-05-15T12:17:14;6.47;;;3.15;;
32032;SDS011;31720;52.638;9.216;2023-05-15T12:20:16;7.72;;;3.90;;
32032;SDS011;31720;52.638;9.216;2023-05-15T12:23:20;9.23;;;4.63;;
32032;SDS011;31720;52.638;9.216;2023-05-15T12:26:23;11.88;;;3.60;;
32032;SDS011;31720;52.638;9.216;2023-05-15T12:29:27;5.90;;;3.13;;
32032;SDS011;31720;52.638;9.216;2023-05-15T12:32:30;7.70;;;4.07;;
32032;SDS011;31720;52.638;9.216;2023-05-15T12:35:32;4.47;;;3.35;;
32032;SDS011;31720;52.638;9.216;2023-05-15T12:38:35;5.53;;;3.33;;
32032;SDS011;31720;52.638;9.216;2023-05-15T12:41:38;7.20;;;3.22;;
32032;SDS011;31720;52.638;9.216;2023-05-15T12:44:39;3.55;;;2.35;;
32032;SDS011;31720;52.638;9.216;2023-05-15T12:47:41;5.85;;;2.80;;
32032;SDS011;31720;52.638;9.216;2023-05-15T12:50:43;4.53;;;2.60;;
32032;SDS011;31720;52.638;9.216;2023-05-15T12:53:45;5.32;;;3.63;;
32032;SDS011;31720;52.638;9.216;2023-05-15T12:56:48;4.22;;;3.00;;
32032;SDS011;31720;52.638;9.216;2023-05-15T12:59:49;5.03;;;2.90;;
32032;SDS011;31720;52.638;9.216;2023-05-15T13:02:52;5.25;;;3.30;;
32032;SDS011;31720;52.638;9.216;2023-05-15T13:05:55;6.70;;;4.03;;
32032;SDS011;31720;52.638;9.216;2023-05-15T13:08:56;4.88;;;3.17;;
32032;SDS011;31720;52.638;9.216;2023-05-15T13:12:01;3.58;;;2.40;;
32032;SDS011;31720;52.638;9.216;2023-05-15T13:15:04;4.68;;;2.60;;
32032;SDS011;31720;52.638;9.216;2023-05-15T13:18:07;4.53;;;2.95;;
32032;SDS011;31720;52.638;9.216;2023-05-15T13:21:09;8.40;;;3.45;;
32032;SDS011;31720;52.638;9.216;2023-05-15T13:24:10;11.50;;;3.67;;
32032;SDS011;31720;52.638;9.216;2023-05-15T13:27:13;8.20;;;3.58;;
32032;SDS011;31720;52.638;9.216;2023-05-15T13:30:15;11.95;;;4.13;;
32032;SDS011;31720;52.638;9.216;2023-05-15T13:33:18;7.57;;;3.15;;
32032;SDS011;31720;52.638;9.216;2023-05-15T13:36:19;7.28;;;3.17;;
32032;SDS011;31720;52.638;9.216;2023-05-15T13:39:20;6.80;;;2.90;;
32032;SDS011;31720;52.638;9.216;2023-05-15T13:42:23;3.72;;;2.80;;
32032;SDS011;31720;52.638;9.216;2023-05-15T13:45:24;4.53;;;2.78;;
32032;SDS011;31720;52.638;9.216;2023-05-15T13:48:26;5.85;;;2.88;;
32032;SDS011;31720;52.638;9.216;2023-05-15T13:51:28;4.30;;;2.50;;
32032;SDS011;31720;52.638;9.216;2023-05-15T13:54:30;5.57;;;3.03;;
32032;SDS011;31720;52.638;9.216;2023-05-15T13:57:32;3.10;;;2.42;;
32032;SDS011;31720;52.638;9.216;2023-05-15T14:00:34;4.00;;;2.40;;
32032;SDS011;31720;52.638;9.216;2023-05-15T14:03:35;5.03;;;3.10;;
32032;SDS011;31720;52.638;9.216;2023-05-15T14:06:36;3.95;;;2.72;;
32032;SDS011;31720;52.638;9.216;2023-05-15T14:09:38;5.97;;;2.88;;
32032;SDS011;31720;52.638;9.216;2023-05-15T14:12:40;5.57;;;3.30;;
32032;SDS011;31720;52.638;9.216;2023-05-15T14:15:42;3.35;;;2.53;;
32032;SDS011;31720;52.638;9.216;2023-05-15T14:18:43;4.90;;;2.78;;
32032;SDS011;31720;52.638;9.216;2023-05-15T14:21:45;6.22;;;2.55;;
32032;SDS011;31720;52.638;9.216;2023-05-15T14:24:46;4.10;;;2.83;;
32032;SDS011;31720;52.638;9.216;2023-05-15T14:27:49;6.50;;;3.50;;
32032;SDS011;31720;52.638;9.216;2023-05-15T14:30:50;5.40;;;3.13;;
32032;SDS011;31720;52.638;9.216;2023-05-15T14:33:52;4.75;;;2.97;;
32032;SDS011;31720;52.638;9.216;2023-05-15T14:36:53;6.50;;;3.75;;
32032;SDS011;31720;52.638;9.216;2023-05-15T14:39:55;8.30;;;4.30;;
32032;SDS011;31720;52.638;9.216;2023-05-15T14:42:57;6.78;;;4.22;;
32032;SDS011;31720;52.638;9.216;2023-05-15T14:45:59;5.88;;;3.55;;
32032;SDS011;31720;52.638;9.216;2023-05-15T14:49:00;6.60;;;2.85;;
32032;SDS011;31720;52.638;9.216;2023-05-15T14:52:02;5.82;;;3.58;;
32032;SDS011;31720;52.638;9.216;2023-05-15T14:55:04;7.53;;;3.72;;
32032;SDS011;31720;52.638;9.216;2023-05-15T14:58:08;6.28;;;4.25;;
32032;SDS011;31720;52.638;9.216;2023-05-15T15:01:10;8.52;;;3.95;;
32032;SDS011;31720;52.638;9.216;2023-05-15T15:04:11;7.28;;;3.97;;
32032;SDS011;31720;52.638;9.216;2023-05-15T15:07:13;7.30;;;4.32;;
32032;SDS011;31720;52.638;9.216;2023-05-15T15:10:14;5.72;;;4.10;;
32032;SDS011;31720;52.638;9.216;2023-05-15T15:13:17;6.35;;;4.30;;
32032;SDS011;31720;52.638;9.216;2023-05-15T15:16:18;9.35;;;4.25;;
32032;SDS011;31720;52.638;9.216;2023-05-15T15:19:19;8.90;;;3.85;;
32032;SDS011;31720;52.638;9.216;2023-05-15T15:22:21;8.85;;;4.25;;
32032;SDS011;31720;52.638;9.216;2023-05-15T15:25:22;8.27;;;4.50;;
32032;SDS011;31720;52.638;9.216;2023-05-15T15:28:25;9.05;;;4.50;;
32032;SDS011;31720;52.638;9.216;2023-05-15T15:31:28;7.85;;;4.18;;
32032;SDS011;31720;52.638;9.216;2023-05-15T15:34:30;6.47;;;4.63;;
32032;SDS011;31720;52.638;9.216;2023-05-15T15:37:32;8.35;;;4.72;;
32032;SDS011;31720;52.638;9.216;2023-05-15T15:40:34;6.18;;;4.47;;
32032;SDS011;31720;52.638;9.216;2023-05-15T15:43:37;9.02;;;4.13;;
32032;SDS011;31720;52.638;9.216;2023-05-15T15:46:39;10.30;;;4.22;;
32032;SDS011;31720;52.638;9.216;2023-05-15T15:49:40;10.45;;;5.25;;
32032;SDS011;31720;52.638;9.216;2023-05-15T15:52:42;7.40;;;4.70;;
32032;SDS011;31720;52.638;9.216;2023-05-15T15:55:43;8.00;;;5.00;;
32032;SDS011;31720;52.638;9.216;2023-05-15T15:58:46;7.07;;;4.60;;
32032;SDS011;31720;52.638;9.216;2023-05-15T16:01:48;6.68;;;4.47;;
32032;SDS011;31720;52.638;9.216;2023-05-15T16:04:49;6.78;;;4.15;;
32032;SDS011;31720;52.638;9.216;2023-05-15T16:07:50;5.38;;;3.75;;
32032;SDS011;31720;52.638;9.216;2023-05-15T16:10:52;4.85;;;3.15;;
32032;SDS011;31720;52.638;9.216;2023-05-15T16:13:55;5.13;;;3.40;;
32032;SDS011;31720;52.638;9.216;2023-05-15T16:16:56;6.18;;;3.08;;
32032;SDS011;31720;52.638;9.216;2023-05-15T16:19:58;7.47;;;3.65;;
32032;SDS011;31720;52.638;9.216;2023-05-15T16:22:59;4.65;;;3.38;;
32032;SDS011;31720;52.638;9.216;2023-05-15T16:26:01;5.18;;;2.72;;
32032;SDS011;31720;52.638;9.216;2023-05-15T16:29:04;6.78;;;3.10;;
32032;SDS011;31720;52.638;9.216;2023-05-15T16:32:06;4.93;;;3.05;;
32032;SDS011;31720;52.638;9.216;2023-05-15T16:35:08;7.63;;;3.33;;
32032;SDS011;31720;52.638;9.216;2023-05-15T16:38:09;4.93;;;3.13;;
32032;SDS011;31720;52.638;9.216;2023-05-15T16:41:11;6.65;;;3.17;;
32032;SDS011;31720;52.638;9.216;2023-05-15T16:44:14;6.90;;;3.28;;
32032;SDS011;31720;52.638;9.216;2023-05-15T16:47:15;3.83;;;2.30;;
32032;SDS011;31720;52.638;9.216;2023-05-15T16:50:16;4.10;;;2.35;;
32032;SDS011;31720;52.638;9.216;2023-05-15T16:53:18;3.30;;;2.30;;
32032;SDS011;31720;52.638;9.216;2023-05-15T16:56:20;3.22;;;2.47;;
32032;SDS011;31720;52.638;9.216;2023-05-15T16:59:22;3.10;;;2.08;;
32032;SDS011;31720;52.638;9.216;2023-05-15T17:02:24;7.15;;;2.53;;
32032;SDS011;31720;52.638;9.216;2023-05-15T17:05:25;6.85;;;2.97;;
32032;SDS011;31720;52.638;9.216;2023-05-15T17:08:27;3.03;;;2.13;;
32032;SDS011;31720;52.638;9.216;2023-05-15T17:11:28;4.50;;;2.70;;
32032;SDS011;31720;52.638;9.216;2023-05-15T17:14:31;5.10;;;2.38;;
32032;SDS011;31720;52.638;9.216;2023-05-15T17:17:32;4.85;;;2.35;;
32032;SDS011;31720;52.638;9.216;2023-05-15T17:20:34;4.22;;;2.50;;
32032;SDS011;31720;52.638;9.216;2023-05-15T17:23:35;3.67;;;2.03;;
32032;SDS011;31720;52.638;9.216;2023-05-15T17:26:36;6.15;;;2.20;;
32032;SDS011;31720;52.638;9.216;2023-05-15T17:29:39;3.15;;;2.08;;
32032;SDS011;31720;52.638;9.216;2023-05-15T17:32:40;3.63;;;1.90;;
32032;SDS011;31720;52.638;9.216;2023-05-15T17:35:42;2.72;;;1.80;;
32032;SDS011;31720;52.638;9.216;2023-05-15T17:38:43;7.00;;;1.70;;
32032;SDS011;31720;52.638;9.216;2023-05-15T17:41:44;2.83;;;1.65;;
32032;SDS011;31720;52.638;9.216;2023-05-15T17:44:47;7.32;;;1.83;;
32032;SDS011;31720;52.638;9.216;2023-05-15T17:47:49;4.30;;;2.30;;
32032;SDS011;31720;52.638;9.216;2023-05-15T17:50:51;4.07;;;2.47;;
32032;SDS011;31720;52.638;9.216;2023-05-15T17:53:52;5.55;;;2.58;;
32032;SDS011;31720;52.638;9.216;2023-05-15T17:56:54;4.43;;;2.67;;
32032;SDS011;31720;52.638;9.216;2023-05-15T17:59:56;3.42;;;2.53;;
32032;SDS011;31720;52.638;9.216;2023-05-15T18:02:58;3.95;;;2.33;;
32032;SDS011;31720;52.638;9.216;2023-05-15T18:06:00;3.97;;;2.53;;
32032;SDS011;31720;52.638;9.216;2023-05-15T18:09:01;5.50;;;2.90;;
32032;SDS011;31720;52.638;9.216;2023-05-15T18:12:04;6.05;;;2.85;;
32032;SDS011;31720;52.638;9.216;2023-05-15T18:15:08;4.57;;;2.50;;
32032;SDS011;31720;52.638;9.216;2023-05-15T18:18:10;3.67;;;2.47;;
32032;SDS011;31720;52.638;9.216;2023-05-15T18:21:11;4.45;;;2.30;;
32032;SDS011;31720;52.638;9.216;2023-05-15T18:24:12;7.07;;;2.78;;